Time;durP1;ratioP1;P1;durP2;ratioP2;P2;SDS_P1;SDS_P2;PMS_P1;PMS_P2;Temp;Humidity;BMP_temperature;BMP_pressure;BME280_temperature;BME280_humidity;BME280_pressure;Samples;Min_cycle;Max_cycle;Signal;HPM_P1;HPM_P2
2021/11/06 00:00:56;;;;;;;11.07;9.77;;;7.00;81.40;;;5.07;91.69;97152.72;4976155;28;20118;-66
2021/11/06 00:03:22;;;;;;;13.00;9.88;;;7.10;81.40;;;5.05;92.20;97163.28;4987956;28;20081;-66
2021/11/06 00:05:48;;;;;;;12.48;9.90;;;7.10;81.30;;;5.06;91.94;97166.72;4936938;28;20133;-66
2021/11/06 00:08:13;;;;;;;11.50;9.60;;;7.00;81.30;;;5.06;92.23;97164.13;4978490;28;20038;-67
2021/11/06 00:10:39;;;;;;;13.80;10.73;;;7.00;81.40;;;5.05;91.90;97167.69;4968241;28;20122;-66
2021/11/06 00:13:05;;;;;;;13.25;10.75;;;7.00;81.20;;;5.03;92.11;97162.59;4953448;28;20039;-66
2021/11/06 00:15:31;;;;;;;13.73;10.80;;;7.00;81.40;;;5.03;92.28;97164.38;4973720;28;20050;-66
2021/11/06 00:17:57;;;;;;;13.27;10.40;;;7.00;81.40;;;5.04;92.36;97163.41;4972860;28;20230;-66
2021/11/06 00:20:22;;;;;;;15.13;10.13;;;7.00;81.40;;;5.05;92.02;97159.84;4971675;28;20038;-66
2021/11/06 00:22:48;;;;;;;12.80;10.25;;;7.00;81.60;;;5.03;92.15;97157.38;4971703;28;20478;-66
2021/11/06 00:25:14;;;;;;;13.98;10.27;;;7.00;81.70;;;5.03;92.21;97157.38;4954890;28;20031;-66
2021/11/06 00:27:40;;;;;;;11.52;9.70;;;7.00;81.60;;;5.03;92.15;97159.97;4953585;28;20035;-66
2021/11/06 00:30:08;;;;;;;12.73;10.00;;;7.00;81.60;;;5.03;92.77;97161.75;4987917;28;20571;-66
2021/11/06 00:32:34;;;;;;;13.18;10.75;;;7.00;81.50;;;5.04;92.02;97153.00;4962015;28;20034;-66
2021/11/06 00:35:00;;;;;;;11.55;10.32;;;7.00;81.50;;;5.04;92.11;97163.41;4983415;28;20065;-66
2021/11/06 00:37:27;;;;;;;11.00;9.63;;;7.10;81.60;;;5.05;92.37;97157.25;4972438;28;20646;-66
2021/11/06 00:39:53;;;;;;;13.38;9.80;;;7.00;81.50;;;5.05;92.13;97160.69;4972405;28;20026;-66
2021/11/06 00:42:18;;;;;;;12.02;10.02;;;7.10;81.50;;;5.06;91.62;97162.34;4972058;28;20050;-66
2021/11/06 00:44:44;;;;;;;12.25;10.55;;;7.00;81.30;;;5.07;92.52;97155.34;4985537;28;20039;-66
2021/11/06 00:47:11;;;;;;;12.73;10.35;;;7.00;81.50;;;5.04;92.58;97153.81;4969278;28;20035;-66
2021/11/06 00:49:37;;;;;;;11.10;9.55;;;7.00;81.60;;;5.02;92.53;97149.69;4984994;28;20031;-66
2021/11/06 00:52:05;;;;;;;11.20;9.65;;;7.00;81.60;;;5.02;92.28;97154.91;4986804;28;20042;-66
2021/11/06 00:54:30;;;;;;;13.98;9.75;;;6.90;81.60;;;5.00;92.02;97141.16;4985088;28;20085;-66
2021/11/06 00:56:56;;;;;;;11.05;9.93;;;7.00;81.70;;;5.01;93.21;97150.66;4987866;28;20050;-66
2021/11/06 00:59:22;;;;;;;11.48;9.57;;;7.00;81.80;;;5.01;92.66;97150.66;4988504;28;20089;-66
2021/11/06 01:01:47;;;;;;;10.52;9.40;;;7.00;81.80;;;5.00;93.03;97146.38;4955494;28;20034;-66
2021/11/06 01:04:13;;;;;;;12.73;10.05;;;7.00;81.80;;;5.00;92.34;97149.00;4968831;28;20031;-66
2021/11/06 01:06:39;;;;;;;12.45;10.27;;;7.00;81.60;;;5.01;92.91;97148.03;4968277;28;20121;-66
2021/11/06 01:09:05;;;;;;;11.77;9.65;;;7.00;81.70;;;5.00;92.60;97152.44;4952670;28;20035;-66
2021/11/06 01:11:30;;;;;;;14.55;10.27;;;7.00;81.80;;;5.01;92.90;97145.44;4971787;28;20031;-66
2021/11/06 01:13:56;;;;;;;13.10;10.73;;;7.00;81.90;;;5.01;93.15;97141.03;4985734;28;20112;-66
2021/11/06 01:16:22;;;;;;;12.95;10.10;;;7.00;81.90;;;5.02;93.06;97139.25;4993866;28;20513;-66
2021/11/06 01:18:47;;;;;;;13.50;10.38;;;7.10;81.80;;;5.04;92.77;97147.78;4978876;28;20039;-66
2021/11/06 01:21:13;;;;;;;13.48;9.93;;;7.00;81.70;;;5.05;93.08;97144.22;4988597;28;20054;-66
2021/11/06 01:23:39;;;;;;;14.07;11.43;;;7.00;81.90;;;5.06;93.46;97145.84;4992939;28;20030;-65
2021/11/06 01:26:05;;;;;;;13.32;9.90;;;7.10;81.80;;;5.06;92.64;97146.69;4957457;28;20126;-66
2021/11/06 01:28:30;;;;;;;12.95;10.82;;;7.00;81.90;;;5.06;93.31;97145.84;4995859;28;20130;-66
2021/11/06 01:30:56;;;;;;;14.02;10.50;;;7.10;81.90;;;5.06;92.56;97143.25;4957744;28;20134;-66
2021/11/06 01:33:22;;;;;;;11.77;9.88;;;7.10;81.90;;;5.06;93.27;97140.66;4965192;28;20045;-66
2021/11/06 01:35:48;;;;;;;12.30;10.57;;;7.10;81.70;;;5.07;93.17;97144.91;4975650;28;20042;-66
2021/11/06 01:38:14;;;;;;;12.50;10.30;;;7.10;81.70;;;5.09;93.70;97145.59;4975663;28;20038;-67
2021/11/06 01:40:39;;;;;;;12.60;10.27;;;7.10;82.00;;;5.09;92.85;97140.38;4986600;28;20121;-67
2021/11/06 01:43:05;;;;;;;14.30;10.27;;;7.10;81.80;;;5.10;93.41;97142.03;4974956;28;20034;-67
2021/11/06 01:45:31;;;;;;;14.57;10.68;;;7.10;81.90;;;5.12;93.02;97155.75;4975465;28;20050;-66
2021/11/06 01:47:57;;;;;;;14.15;10.02;;;7.10;82.10;;;5.11;92.53;97144.50;4956060;28;20042;-66
2021/11/06 01:50:23;;;;;;;13.77;10.05;;;7.10;81.90;;;5.11;93.40;97147.13;4972280;28;20162;-66
2021/11/06 01:52:49;;;;;;;13.05;10.85;;;7.10;82.10;;;5.09;93.17;97143.00;4989079;28;20089;-67
2021/11/06 01:55:14;;;;;;;13.38;9.40;;;7.10;82.00;;;5.09;92.91;97143.00;4958954;28;20034;-66
2021/11/06 01:57:40;;;;;;;14.02;10.88;;;7.10;81.90;;;5.08;93.50;97143.94;4977398;28;20117;-65
2021/11/06 02:00:26;;;;;;;12.15;10.25;;;7.00;82.00;;;5.06;93.76;97141.47;4990986;28;20085;-66
2021/11/06 02:02:52;;;;;;;11.63;9.98;;;7.00;81.90;;;5.05;93.56;97139.81;4955409;28;20039;-66
2021/11/06 02:05:18;;;;;;;16.15;13.13;;;7.10;81.90;;;5.05;92.83;97145.03;4987125;28;20549;-66
2021/11/06 02:07:44;;;;;;;16.77;14.63;;;7.00;82.10;;;5.06;93.58;97145.84;4958573;28;20066;-66
2021/11/06 02:10:10;;;;;;;11.63;10.13;;;7.00;82.20;;;5.04;93.46;97137.34;4970947;28;20494;-66
2021/11/06 02:12:37;;;;;;;15.00;12.75;;;7.00;81.90;;;5.03;93.84;97148.72;4985570;28;20053;-66
2021/11/06 02:15:05;;;;;;;18.02;13.15;;;7.00;81.80;;;5.02;93.52;97147.06;4974733;28;20521;-66
2021/11/06 02:17:30;;;;;;;13.10;10.90;;;7.00;81.90;;;5.01;93.52;97148.03;4980975;28;20054;-66
2021/11/06 02:19:56;;;;;;;14.65;10.38;;;7.00;82.00;;;5.01;93.11;97138.44;5007039;28;20495;-66
2021/11/06 02:22:22;;;;;;;18.45;15.20;;;7.00;82.00;;;5.00;93.49;97141.16;4990223;28;20031;-66
2021/11/06 02:24:48;;;;;;;15.77;13.88;;;6.90;82.00;;;4.99;93.30;97134.31;5006527;28;20453;-66
2021/11/06 02:27:14;;;;;;;15.23;11.63;;;6.90;82.00;;;5.00;93.29;97141.16;4978830;28;20058;-66
2021/11/06 02:29:40;;;;;;;12.85;10.30;;;7.00;82.00;;;4.97;93.49;97136.19;4974327;28;20407;-66
2021/11/06 02:32:07;;;;;;;13.35;10.48;;;6.90;81.90;;;4.93;93.76;97136.44;4958702;28;20045;-66
2021/11/06 02:34:33;;;;;;;13.05;10.70;;;6.90;82.00;;;4.95;92.76;97138.09;4972939;28;20031;-67
2021/11/06 02:36:59;;;;;;;12.77;10.18;;;6.90;82.00;;;4.93;92.98;97136.44;4958133;28;20100;-66
2021/11/06 02:39:25;;;;;;;10.88;9.75;;;6.90;82.10;;;4.91;92.64;97137.53;4990349;28;20112;-66
2021/11/06 02:42:01;;;;;;;13.98;10.27;;;6.80;82.20;;;4.90;92.83;97138.50;4969734;28;20179;-66
2021/11/06 02:44:27;;;;;;;13.55;10.27;;;6.80;82.10;;;4.85;93.33;97133.66;4958745;28;20437;-66
2021/11/06 02:46:53;;;;;;;11.77;9.23;;;6.80;82.20;;;4.86;92.90;97130.09;4970479;28;21570;-66
2021/11/06 02:49:18;;;;;;;10.77;9.68;;;6.80;82.20;;;4.84;93.09;97132.00;4989861;28;20100;-66
2021/11/06 02:51:44;;;;;;;11.93;9.93;;;6.80;82.30;;;4.82;93.10;97133.91;4990204;28;20042;-66
2021/11/06 02:54:10;;;;;;;13.55;10.30;;;6.70;82.30;;;4.82;93.57;97144.34;5006429;23;20501;-68
2021/11/06 02:56:35;;;;;;;12.60;10.23;;;6.70;82.20;;;4.80;93.56;97133.22;4981428;28;20585;-68
2021/11/06 02:59:01;;;;;;;13.55;10.73;;;6.70;82.40;;;4.79;93.90;97142.00;4987042;28;20054;-69
2021/11/06 03:01:27;;;;;;;13.00;10.18;;;6.70;82.40;;;4.78;93.65;97140.34;4962350;28;20027;-69
2021/11/06 03:03:53;;;;;;;13.32;10.55;;;6.70;82.40;;;4.73;93.73;97134.66;4971577;28;20117;-68
2021/11/06 03:06:18;;;;;;;13.93;10.13;;;6.70;82.50;;;4.75;94.24;97143.22;4954762;28;20049;-68
2021/11/06 03:08:44;;;;;;;11.48;10.23;;;6.70;82.50;;;4.76;93.89;97150.06;4953838;28;20149;-68
2021/11/06 03:11:10;;;;;;;11.68;10.18;;;6.70;82.60;;;4.75;94.37;97152.78;4970680;28;20042;-68
2021/11/06 03:13:36;;;;;;;13.02;11.00;;;6.70;82.60;;;4.73;93.52;97144.28;4970244;28;20376;-68
2021/11/06 03:16:02;;;;;;;12.55;10.18;;;6.60;82.70;;;4.72;93.46;97148.66;4938695;28;20448;-68
2021/11/06 03:18:28;;;;;;;12.52;9.85;;;6.70;82.90;;;4.71;94.26;97139.19;4970625;28;20518;-68
2021/11/06 03:20:53;;;;;;;12.57;10.00;;;6.70;82.80;;;4.71;94.62;97141.78;4969799;28;20150;-67
2021/11/06 03:23:19;;;;;;;13.55;10.02;;;6.70;82.60;;;4.75;93.60;97147.56;4970109;28;20035;-67
2021/11/06 03:25:45;;;;;;;12.60;10.60;;;6.70;82.60;;;4.72;94.45;97148.66;4970264;28;20097;-67
2021/11/06 03:28:11;;;;;;;12.50;9.85;;;6.60;82.60;;;4.71;94.02;97149.59;4954585;28;20031;-68
2021/11/06 03:30:36;;;;;;;12.32;9.85;;;6.70;82.90;;;4.73;94.52;97152.09;4953096;28;20031;-68
2021/11/06 03:33:02;;;;;;;11.88;10.38;;;6.70;82.90;;;4.70;94.38;97147.13;4969645;28;20035;-67
2021/11/06 03:35:28;;;;;;;12.90;9.88;;;6.80;82.70;;;4.72;94.71;97153.03;4953908;28;20031;-68
2021/11/06 03:37:54;;;;;;;13.95;9.85;;;6.70;82.80;;;4.75;94.16;97150.19;4969713;28;20034;-67
2021/11/06 03:40:20;;;;;;;14.50;10.18;;;6.80;82.70;;;4.77;94.34;97151.72;4953827;28;20201;-66
2021/11/06 03:42:47;;;;;;;11.88;10.57;;;6.80;82.60;;;4.79;93.94;97162.03;4970357;28;20035;-68
2021/11/06 03:45:13;;;;;;;11.38;9.50;;;6.80;82.50;;;4.80;93.83;97161.91;4970398;28;20031;-68
2021/11/06 03:47:39;;;;;;;12.35;10.15;;;6.80;82.70;;;4.79;94.66;97157.63;4958882;28;20605;-68
2021/11/06 03:50:06;;;;;;;13.07;9.88;;;6.80;82.80;;;4.81;94.34;97155.72;4953964;28;20031;-67
2021/11/06 03:52:32;;;;;;;12.88;10.30;;;6.80;82.70;;;4.81;94.17;97149.69;4941438;28;20464;-67
2021/11/06 03:54:57;;;;;;;14.88;10.82;;;6.90;82.70;;;4.80;94.16;97150.66;4969384;28;20081;-68
2021/11/06 03:57:23;;;;;;;12.30;9.95;;;6.80;82.60;;;4.81;94.66;97158.34;4937933;28;20150;-67
2021/11/06 03:59:49;;;;;;;12.27;9.82;;;6.80;82.60;;;4.80;94.76;97159.28;4968981;28;20117;-68
2021/11/06 04:02:15;;;;;;;14.27;9.77;;;6.80;82.60;;;4.80;94.56;97161.91;4969199;28;20151;-68
2021/11/06 04:04:40;;;;;;;10.88;9.57;;;6.70;82.60;;;4.75;94.50;97142.34;4968747;28;20081;-68
2021/11/06 04:07:06;;;;;;;12.55;10.65;;;6.80;82.50;;;4.81;93.77;97163.56;4934190;29;20094;-68
2021/11/06 04:09:32;;;;;;;11.70;9.98;;;6.80;82.50;;;4.82;93.85;97159.16;4968439;28;20046;-68
2021/11/06 04:11:57;;;;;;;13.40;9.43;;;6.80;82.40;;;4.74;94.01;97154.56;4954459;28;20090;-67
2021/11/06 04:14:23;;;;;;;11.68;10.18;;;6.70;82.60;;;4.76;94.71;97155.28;4953613;28;20038;-67
2021/11/06 04:16:49;;;;;;;13.98;10.32;;;6.70;82.70;;;4.72;94.28;97151.25;4968679;28;20038;-68
2021/11/06 04:19:15;;;;;;;13.65;10.10;;;6.70;82.50;;;4.73;93.66;97157.28;4969440;28;20376;-68
2021/11/06 04:21:40;;;;;;;11.82;10.40;;;6.70;82.30;;;4.73;93.92;97160.72;4934438;28;20419;-69
2021/11/06 04:24:06;;;;;;;11.73;10.18;;;6.70;82.40;;;4.72;94.55;97160.84;4977586;28;20031;-66
2021/11/06 04:26:32;;;;;;;12.60;9.80;;;6.70;82.40;;;4.68;93.78;97162.91;4952487;28;20039;-70
2021/11/06 04:28:58;;;;;;;11.82;10.00;;;6.70;82.40;;;4.69;94.55;97159.34;4951862;28;20118;-66
2021/11/06 04:31:24;;;;;;;11.75;10.07;;;6.70;82.40;;;4.70;94.40;97161.00;4966994;28;20046;-65
2021/11/06 04:33:50;;;;;;;12.95;9.93;;;6.70;82.20;;;4.66;94.02;97159.59;4970104;28;20121;-66
2021/11/06 04:36:16;;;;;;;12.27;9.52;;;6.60;82.20;;;4.66;93.23;97157.00;4967723;28;20035;-66
2021/11/06 04:38:43;;;;;;;13.55;10.32;;;6.60;82.20;;;4.63;94.29;97165.06;4984158;28;20038;-67
2021/11/06 04:41:08;;;;;;;11.90;9.85;;;6.60;82.20;;;4.58;93.44;97157.63;4951894;28;20065;-68
2021/11/06 04:43:35;;;;;;;12.70;9.73;;;6.60;82.10;;;4.59;93.16;97163.66;4967507;28;20038;-68
2021/11/06 04:46:00;;;;;;;11.10;9.73;;;6.60;82.20;;;4.59;94.15;97167.09;4984045;28;20109;-67
2021/11/06 04:48:26;;;;;;;12.13;10.18;;;6.60;82.20;;;4.55;93.72;97157.88;4952465;28;20133;-67
2021/11/06 04:50:52;;;;;;;11.70;9.57;;;6.60;82.10;;;4.55;93.96;97172.69;4955921;28;20043;-68
2021/11/06 04:53:17;;;;;;;13.50;10.55;;;6.60;82.00;;;4.55;93.28;97173.53;4972938;28;20113;-68
2021/11/06 04:55:43;;;;;;;13.43;10.00;;;6.50;82.20;;;4.54;93.79;97176.25;4972944;28;20045;-67
2021/11/06 04:58:09;;;;;;;13.07;10.20;;;6.50;82.00;;;4.52;93.11;97167.69;4972536;28;20094;-67
2021/11/06 05:00:35;;;;;;;11.30;10.07;;;6.50;82.10;;;4.50;94.00;97159.19;4962853;28;20089;-67
2021/11/06 05:03:01;;;;;;;13.00;10.73;;;6.50;82.10;;;4.50;93.69;97174.81;4971666;28;20129;-67
2021/11/06 05:05:26;;;;;;;11.68;10.32;;;6.40;82.20;;;4.48;93.08;97174.94;4973688;28;20086;-68
2021/11/06 05:07:52;;;;;;;11.77;10.15;;;6.40;82.30;;;4.47;92.95;97175.06;4956844;28;20065;-68
2021/11/06 05:10:18;;;;;;;12.32;9.40;;;6.40;82.20;;;4.45;93.86;97174.38;4973449;28;20046;-67
2021/11/06 05:12:44;;;;;;;11.27;9.43;;;6.50;82.00;;;4.44;93.12;97172.72;4956008;28;20041;-67
2021/11/06 05:15:10;;;;;;;11.95;9.65;;;6.40;82.00;;;4.42;93.17;97166.81;4972745;28;20026;-68
2021/11/06 05:17:36;;;;;;;11.00;9.52;;;6.40;81.80;;;4.38;93.61;97173.22;4973832;28;20363;-67
2021/11/06 05:20:04;;;;;;;12.00;9.70;;;6.40;81.90;;;4.39;93.64;97177.47;4987122;28;20101;-67
2021/11/06 05:22:30;;;;;;;11.70;9.57;;;6.40;81.80;;;4.34;93.56;97166.63;4955939;28;20031;-68
2021/11/06 05:24:56;;;;;;;12.77;10.23;;;6.30;81.90;;;4.34;93.48;97177.03;4987323;28;20043;-70
2021/11/06 05:27:21;;;;;;;11.27;10.07;;;6.30;81.80;;;4.28;93.47;97170.53;4964453;28;20046;-67
2021/11/06 05:29:47;;;;;;;11.85;9.75;;;6.20;82.00;;;4.28;93.21;97176.56;4971805;28;20066;-65
2021/11/06 05:32:13;;;;;;;12.40;9.77;;;6.30;82.00;;;4.25;92.90;97176.81;4972682;28;20034;-67
2021/11/06 05:34:38;;;;;;;12.10;9.13;;;6.30;81.90;;;4.26;93.42;97182.84;4971298;28;20154;-65
2021/11/06 05:37:05;;;;;;;12.02;8.70;;;6.30;82.00;;;4.23;93.54;97177.88;4956800;28;20094;-65
2021/11/06 05:39:31;;;;;;;10.60;9.02;;;6.20;82.10;;;4.20;92.97;97181.56;4940363;28;20035;-65
2021/11/06 05:41:56;;;;;;;12.02;9.35;;;6.20;82.00;;;4.15;93.44;97172.47;4956953;28;20089;-65
2021/11/06 05:44:22;;;;;;;11.63;9.88;;;6.20;81.90;;;4.19;92.96;97187.72;4940770;28;20027;-65
2021/11/06 05:46:48;;;;;;;12.73;10.20;;;6.20;81.80;;;4.16;92.96;97187.16;4956113;28;20034;-65
2021/11/06 05:49:13;;;;;;;12.85;9.27;;;6.10;81.70;;;4.14;92.90;97189.88;4955596;28;20183;-65
2021/11/06 05:51:39;;;;;;;13.77;10.10;;;6.10;82.00;;;4.14;93.54;97191.66;4988830;28;20499;-65
2021/11/06 05:54:05;;;;;;;12.18;9.50;;;6.10;82.20;;;4.12;93.37;97190.94;4972449;28;20027;-65
2021/11/06 05:56:31;;;;;;;10.80;8.68;;;6.10;82.10;;;4.10;92.94;97198.88;4971803;28;20078;-64
2021/11/06 05:58:57;;;;;;;12.40;9.60;;;6.10;81.90;;;4.10;93.51;97185.03;4936754;28;20063;-65
2021/11/06 06:01:23;;;;;;;14.88;9.50;;;6.10;82.20;;;4.07;93.74;97180.88;4952672;28;20407;-66
2021/11/06 06:03:48;;;;;;;12.90;10.30;;;6.10;82.40;;;4.09;93.58;97192.03;4953015;28;20047;-66
2021/11/06 06:06:14;;;;;;;13.10;10.82;;;6.10;82.40;;;4.07;93.69;97199.09;4969227;28;20067;-65
2021/11/06 06:08:40;;;;;;;14.98;11.18;;;6.10;82.40;;;4.08;94.58;97198.19;4953003;28;20128;-65
2021/11/06 06:11:06;;;;;;;20.67;9.98;;;6.10;82.60;;;4.08;94.26;97199.97;4972478;28;20499;-65
2021/11/06 06:13:31;;;;;;;13.50;11.02;;;6.10;82.90;;;4.10;95.03;97209.28;4972039;28;20181;-66
2021/11/06 06:15:57;;;;;;;12.65;10.80;;;6.10;83.10;;;4.09;95.03;97197.22;4972349;28;20074;-65
2021/11/06 06:18:23;;;;;;;12.65;10.30;;;6.20;83.20;;;4.12;94.79;97196.97;4956912;28;20040;-65
2021/11/06 06:20:49;;;;;;;13.48;10.63;;;6.10;83.10;;;4.13;94.33;97196.03;4962143;28;20066;-66
2021/11/06 06:23:15;;;;;;;13.40;10.18;;;6.20;83.00;;;4.14;94.07;97194.25;4971937;28;20031;-65
2021/11/06 06:25:41;;;;;;;45.22;31.98;;;6.20;82.80;;;4.12;94.47;97194.38;4955828;28;20039;-65
2021/11/06 06:28:08;;;;;;;54.97;38.42;;;6.10;82.80;;;4.10;94.56;97195.44;4971778;28;20041;-65
2021/11/06 06:30:35;;;;;;;50.70;40.50;;;6.10;82.70;;;4.06;93.93;97202.66;4955603;28;20031;-66
2021/11/06 06:33:02;;;;;;;24.30;19.33;;;6.10;82.50;;;4.04;94.45;97201.13;4972903;28;20090;-65
2021/11/06 06:35:29;;;;;;;15.27;11.80;;;6.10;82.50;;;4.04;94.02;97209.75;4955868;28;20451;-65
2021/11/06 06:37:58;;;;;;;13.63;11.13;;;6.10;82.20;;;4.02;93.99;97214.25;4955821;28;20030;-64
2021/11/06 06:40:25;;;;;;;16.88;11.30;;;6.10;81.90;;;3.97;94.29;97214.63;4940010;28;20386;-65
2021/11/06 06:42:51;;;;;;;31.05;24.55;;;6.10;82.70;;;3.99;93.96;97217.09;4939443;28;20031;-65
2021/11/06 06:45:16;;;;;;;43.92;35.35;;;6.10;82.80;;;3.99;95.01;97217.94;4955900;28;20035;-66
2021/11/06 06:47:42;;;;;;;49.33;40.08;;;6.10;83.00;;;4.02;94.89;97221.25;4955158;28;20047;-65
2021/11/06 06:50:08;;;;;;;23.88;18.65;;;6.20;82.90;;;4.04;94.81;97230.59;4971519;28;20467;-65
2021/11/06 06:52:34;;;;;;;32.75;15.38;;;6.10;82.00;;;4.04;94.17;97230.59;4955238;28;20081;-65
2021/11/06 06:55:01;;;;;;;14.65;11.65;;;6.20;81.60;;;4.08;93.38;97232.03;4955303;28;20026;-65
2021/11/06 06:57:26;;;;;;;11.70;9.57;;;6.30;81.20;;;4.11;94.18;97242.19;4954717;28;20039;-65
2021/11/06 06:59:52;;;;;;;24.10;17.77;;;6.30;80.90;;;4.15;93.10;97247.97;4971141;28;20140;-65
2021/11/06 07:02:18;;;;;;;27.55;20.98;;;6.40;80.20;;;4.17;92.97;97240.88;4969884;28;20098;-65
2021/11/06 07:04:44;;;;;;;32.28;25.33;;;6.40;80.00;;;4.20;93.00;97241.47;4952620;28;20130;-66
2021/11/06 07:07:10;;;;;;;24.08;20.02;;;6.50;79.50;;;4.23;92.69;97243.81;4952267;28;20031;-66
2021/11/06 07:09:36;;;;;;;14.50;12.02;;;6.60;79.60;;;4.28;92.95;97240.84;4951547;28;20027;-65
2021/11/06 07:12:02;;;;;;;9.85;8.45;;;6.80;79.40;;;4.38;92.48;97233.97;4957205;28;20038;-68
2021/11/06 07:14:28;;;;;;;11.18;8.77;;;6.90;78.40;;;4.48;91.87;97249.66;4949677;28;20055;-68
2021/11/06 07:16:53;;;;;;;17.90;15.70;;;7.10;77.90;;;4.56;92.65;97247.31;4952734;28;20035;-68
2021/11/06 07:19:19;;;;;;;20.10;16.52;;;7.20;77.70;;;4.67;92.64;97249.84;4977250;28;20090;-68
2021/11/06 07:21:45;;;;;;;13.73;11.70;;;7.30;77.30;;;4.76;92.25;97262.16;4954930;28;20038;-68
2021/11/06 07:24:10;;;;;;;13.60;10.27;;;7.40;77.10;;;4.83;91.74;97255.50;4961105;28;20100;-68
2021/11/06 07:26:36;;;;;;;14.02;11.68;;;7.50;76.80;;;4.90;91.90;97261.84;4954185;28;20125;-68
2021/11/06 07:29:02;;;;;;;17.65;14.70;;;7.60;76.70;;;5.01;92.06;97257.56;4938502;28;20039;-68
2021/11/06 07:31:28;;;;;;;16.17;11.55;;;7.60;76.60;;;5.10;91.97;97264.59;4954881;28;20631;-68
2021/11/06 07:33:54;;;;;;;11.27;10.10;;;7.70;76.40;;;5.19;90.97;97261.22;4966959;28;20063;-65
2021/11/06 07:36:23;;;;;;;8.95;7.97;;;7.90;76.00;;;5.29;91.29;97266.53;4971826;28;20575;-66
2021/11/06 07:38:50;;;;;;;8.85;7.95;;;8.00;75.90;;;5.36;90.63;97273.72;4970919;28;20037;-65
2021/11/06 07:41:15;;;;;;;8.00;7.20;;;8.00;75.80;;;5.44;90.47;97271.31;4954774;28;20507;-65
2021/11/06 07:43:42;;;;;;;7.97;7.18;;;8.10;75.70;;;5.51;90.74;97269.81;4969314;28;20046;-63
2021/11/06 07:46:08;;;;;;;8.23;7.28;;;8.10;75.40;;;5.58;90.63;97271.91;4971907;28;20041;-63
2021/11/06 07:48:34;;;;;;;8.23;7.43;;;8.20;75.40;;;5.66;90.25;97274.69;4969746;28;20443;-66
2021/11/06 07:50:59;;;;;;;12.75;9.98;;;8.30;75.30;;;5.73;90.45;97279.28;4969594;28;20038;-63
2021/11/06 07:53:25;;;;;;;10.15;9.15;;;8.30;75.20;;;5.80;89.89;97276.97;4953378;28;20039;-66
2021/11/06 07:55:51;;;;;;;9.60;8.63;;;8.50;75.10;;;5.90;89.79;97274.47;4966363;28;20103;-63
2021/11/06 07:58:17;;;;;;;10.82;7.70;;;8.60;74.70;;;5.98;89.37;97272.00;4949906;28;20380;-66
2021/11/06 08:00:43;;;;;;;9.25;7.80;;;8.70;74.70;;;6.03;89.31;97270.66;4985501;28;20042;-71
2021/11/06 08:03:08;;;;;;;8.18;7.35;;;8.80;74.40;;;6.18;89.58;97280.75;4967998;28;20051;-72
2021/11/06 08:05:34;;;;;;;13.27;8.65;;;8.90;74.10;;;6.24;89.17;97274.97;4953535;28;20035;-71
2021/11/06 08:08:00;;;;;;;9.63;7.72;;;8.90;74.10;;;6.33;88.93;97274.16;4970440;28;20027;-70
2021/11/06 08:10:29;;;;;;;6.47;5.88;;;9.00;73.50;;;6.42;88.16;97273.38;4971168;28;20037;-67
2021/11/06 08:12:59;;;;;;;10.27;8.25;;;9.10;72.80;;;6.51;87.93;97272.56;4969716;28;20144;-66
2021/11/06 08:15:25;;;;;;;12.70;9.80;;;9.30;73.00;;;6.63;88.25;97271.50;4954820;28;20039;-66
2021/11/06 08:17:53;;;;;;;12.98;10.45;;;9.60;72.50;;;6.74;87.58;97268.75;4938222;28;20062;-66
2021/11/06 08:20:19;;;;;;;11.07;9.55;;;9.80;71.80;;;6.91;87.48;97276.88;4970118;28;20033;-67
2021/11/06 08:22:44;;;;;;;12.30;10.07;;;10.10;70.90;;;7.06;87.53;97272.91;4953502;28;20038;-67
2021/11/06 08:25:15;;;;;;;15.93;10.82;;;10.40;69.80;;;7.22;86.83;97273.16;4967651;28;20039;-67
2021/11/06 08:27:41;;;;;;;12.63;10.57;;;10.50;69.10;;;7.38;86.59;97273.41;4955541;28;20034;-67
2021/11/06 08:30:07;;;;;;;11.88;10.68;;;11.00;68.20;;;7.61;86.46;97278.34;4969875;28;20034;-67
2021/11/06 08:32:33;;;;;;;15.15;13.43;;;11.10;68.00;;;7.77;86.01;97272.50;4953732;28;20030;-67
2021/11/06 08:34:59;;;;;;;11.63;9.90;;;11.20;67.80;;;7.93;85.73;97265.72;4937344;28;20474;-67
2021/11/06 08:37:25;;;;;;;10.80;9.32;;;11.60;67.30;;;8.14;86.07;97272.50;4953826;28;20581;-67
2021/11/06 08:39:50;;;;;;;10.75;9.38;;;12.20;65.80;;;8.41;85.56;97277.78;4969472;28;20034;-67
2021/11/06 08:42:16;;;;;;;12.07;9.20;;;12.60;63.20;;;8.67;84.86;97270.03;4970184;28;20034;-67
2021/11/06 08:44:42;;;;;;;12.05;8.55;;;13.10;62.10;;;9.00;83.83;97267.72;4968566;28;20133;-67
2021/11/06 08:47:07;;;;;;;9.93;8.93;;;13.40;61.30;;;9.20;83.07;97270.03;4946462;28;20063;-67
2021/11/06 08:49:33;;;;;;;9.02;8.07;;;13.70;60.10;;;9.48;83.16;97268.09;4934648;28;20043;-67
2021/11/06 08:51:59;;;;;;;10.75;8.20;;;14.10;58.10;;;9.73;81.86;97265.66;4966820;28;20499;-67
2021/11/06 08:54:25;;;;;;;9.68;7.97;;;14.20;58.10;;;9.97;80.78;97267.63;4968896;28;20050;-67
2021/11/06 08:56:50;;;;;;;8.80;7.53;;;14.00;59.10;;;10.13;80.79;97265.88;4952549;28;20771;-67
2021/11/06 08:59:18;;;;;;;8.55;7.70;;;14.00;59.30;;;10.30;79.15;97264.19;4953407;28;20027;-68
2021/11/06 09:01:44;;;;;;;6.93;6.22;;;13.90;59.10;;;10.38;78.74;97261.56;4949542;28;20188;-67
2021/11/06 09:04:10;;;;;;;8.68;6.50;;;13.70;59.00;;;10.39;78.00;97257.94;4953040;28;20065;-67
2021/11/06 09:06:38;;;;;;;23.88;7.90;;;13.60;60.20;;;10.41;77.61;97266.53;4968870;28;20031;-65
2021/11/06 09:09:06;;;;;;;13.27;8.20;;;13.30;60.70;;;10.29;76.74;97264.34;4968487;28;20058;-65
2021/11/06 09:11:32;;;;;;;21.60;8.65;;;12.90;61.50;;;10.17;76.65;97263.75;4952477;28;20039;-65
2021/11/06 09:13:57;;;;;;;17.08;8.60;;;12.70;62.60;;;10.09;77.61;97261.91;4960506;28;20473;-66
2021/11/06 09:16:23;;;;;;;13.98;10.45;;;12.70;63.00;;;10.07;77.38;97257.78;4949951;28;20511;-66
2021/11/06 09:18:49;;;;;;;22.15;16.63;;;12.60;63.00;;;9.99;76.44;97265.66;4964754;28;20038;-66
2021/11/06 09:21:18;;;;;;;16.40;13.25;;;12.60;63.60;;;9.93;76.99;97261.81;4944713;28;20038;-66
2021/11/06 09:23:47;;;;;;;17.50;15.70;;;12.60;62.90;;;9.90;76.28;97259.50;4952946;28;20114;-66
2021/11/06 09:26:13;;;;;;;12.27;9.82;;;12.80;62.20;;;9.94;76.38;97262.66;4968938;28;20037;-66
2021/11/06 09:28:42;;;;;;;12.55;10.70;;;12.90;61.90;;;9.97;76.70;97267.63;4977075;28;20043;-66
2021/11/06 09:31:11;;;;;;;12.68;10.35;;;13.10;61.60;;;9.91;75.44;97266.41;4950187;28;20038;-66
2021/11/06 09:33:41;;;;;;;12.93;11.35;;;12.90;61.10;;;9.84;75.04;97273.28;4933825;28;20035;-66
2021/11/06 09:36:06;;;;;;;13.23;11.82;;;13.00;60.70;;;9.89;75.97;97264.94;4950156;28;20035;-66
2021/11/06 09:38:32;;;;;;;14.80;13.23;;;13.20;60.50;;;10.02;76.19;97275.84;4953129;28;20039;-66
2021/11/06 09:41:02;;;;;;;15.95;14.25;;;13.10;60.80;;;10.06;75.03;97269.28;4955665;28;20050;-67
2021/11/06 09:43:28;;;;;;;16.42;13.95;;;13.10;60.80;;;10.09;76.04;97267.16;4972423;28;20034;-66
2021/11/06 09:45:55;;;;;;;14.23;12.73;;;13.30;60.80;;;10.20;75.63;97268.72;4952583;28;20447;-66
2021/11/06 09:48:25;;;;;;;14.60;12.98;;;13.40;60.30;;;10.29;75.25;97273.03;4936790;28;20528;-66
2021/11/06 09:50:51;;;;;;;16.45;13.77;;;13.60;60.00;;;10.30;75.71;97269.44;4971246;28;20039;-66
2021/11/06 09:53:17;;;;;;;15.77;13.77;;;13.30;60.30;;;10.28;74.95;97276.66;4955811;28;20034;-66
2021/11/06 09:55:43;;;;;;;15.30;12.90;;;13.10;61.30;;;10.25;75.48;97274.34;4971333;28;20525;-66
2021/11/06 09:58:09;;;;;;;16.27;14.23;;;12.90;61.70;;;10.16;75.40;97271.78;4956525;28;20027;-66
2021/11/06 10:00:35;;;;;;;16.67;14.05;;;12.60;62.20;;;10.10;74.46;97262.72;4955516;28;20027;-67
2021/11/06 10:03:01;;;;;;;17.10;15.30;;;12.50;62.50;;;10.04;75.51;97263.38;4936427;29;20039;-67
2021/11/06 10:05:54;;;;;;;17.02;14.50;;;12.60;63.30;;;10.17;74.17;97269.00;4967904;28;20089;-67
2021/11/06 10:08:30;;;;;;;18.50;16.50;;;13.10;62.00;;;10.35;73.23;97261.06;4956155;28;20042;-66
2021/11/06 10:10:56;;;;;;;21.65;19.45;;;13.60;59.70;;;10.51;73.72;97260.31;4955783;28;20406;-67
2021/11/06 10:13:23;;;;;;;19.63;17.40;;;13.70;58.70;;;10.65;74.12;97262.31;4921400;28;20027;-67
2021/11/06 10:15:51;;;;;;;16.95;15.25;;;14.20;56.80;;;10.89;72.86;97257.13;4955590;28;20376;-67